Atalanti — 5BYY2 — position and weather

sailwx.info

Track history (hours):
 
Tides and Currents Weather Stations Pressure Air Temp Water Temp Dewpoint Dewpoint Depression Visibility Wind Speed Wind Dir Waves Ship Positions

Atalanti

Last reported at 2018-Apr-14 06:50 UTC. Time now 2018-Apr-19 13:27 UTC.
Position N 39°24' W 009°56'.

Length 97 m; draft 4.2 m.

Type: Other ship. MMSI: 212279000.

Date/timePositionNaut miles runAvg speedWind from/ knotsBaromVisibWave heightAir tempDewpointWater temp
2018-Apr-14 06:50N 39°24' W 009°56'2 5.9
2018-Apr-14 06:29N 39°22' W 009°55'3 5.7
2018-Apr-14 05:58N 39°20' W 009°54'3 5.7
2018-Apr-14 05:30N 39°17' W 009°53'3 5.7
2018-Apr-14 05:00N 39°15' W 009°52'3 5.8
2018-Apr-14 04:30N 39°12' W 009°51'3 5.9
2018-Apr-14 04:00N 39°09' W 009°49'3 5.8
2018-Apr-14 03:30N 39°06' W 009°48'3 5.8
2018-Apr-14 03:00N 39°03' W 009°47'3 5.8
2018-Apr-14 02:30N 39°01' W 009°46'3 5.6
2018-Apr-14 02:01N 38°58' W 009°45'3 5.7
2018-Apr-14 01:30N 38°55' W 009°44'3 5.9
2018-Apr-14 01:00N 38°52' W 009°43'3 5.9
2018-Apr-14 00:30N 38°49' W 009°43'3 6.1
2018-Apr-14 00:00N 38°46' W 009°42'3 6.0
2018-Apr-13 23:30N 38°44' W 009°42'3 5.6
2018-Apr-13 23:00N 38°41' W 009°41'2 5.0
2018-Apr-13 22:31N 38°39' W 009°39'3 5.4
2018-Apr-13 22:00N 38°38' W 009°36'3 5.3
2018-Apr-13 21:30N 38°37' W 009°33'2 4.8
2018-Apr-13 21:00N 38°37' W 009°30'2 4.5
2018-Apr-13 20:30N 38°36' W 009°27'0 0.9
2018-Apr-13 20:00N 38°36' W 009°27'1 2.8
2018-Apr-13 19:30N 38°36' W 009°26'3 5.4
2018-Apr-13 19:00N 38°37' W 009°22'3 6.8
2018-Apr-13 18:31N 38°40' W 009°19'5 7.3
2018-Apr-13 17:54N 38°41' W 009°14'3 8.2
2018-Apr-13 17:29N 38°42' W 009°10'0 0.6
2018-Apr-13 16:59N 38°42' W 009°09'0 0.0
2018-Apr-13 16:26N 38°42' W 009°09'0 0.0
2018-Apr-13 15:59N 38°42' W 009°09'0 0.0
2018-Apr-13 15:29N 38°42' W 009°09'0 0.0
2018-Apr-13 14:56N 38°42' W 009°09'0 0.0
2018-Apr-13 14:17N 38°42' W 009°09'0 0.0
2018-Apr-13 13:56N 38°42' W 009°09'0 0.0
2018-Apr-13 13:02N 38°42' W 009°09'0 0.0
2018-Apr-13 12:53N 38°42' W 009°09'0 0.0
2018-Apr-13 12:26N 38°42' W 009°09'0 0.0
2018-Apr-13 11:56N 38°42' W 009°09'0 0.0
2018-Apr-13 11:17N 38°42' W 009°09'0 0.0
2018-Apr-13 08:29N 38°42' W 009°09'0 0.0
2018-Apr-13 07:47N 38°42' W 009°09'0 0.0
2018-Apr-13 07:26N 38°42' W 009°09'0 0.0
2018-Apr-13 06:41N 38°42' W 009°09'0 0.0
2018-Apr-13 06:23N 38°42' W 009°09'0 0.0
2018-Apr-13 05:59N 38°42' W 009°09'0 0.0
2018-Apr-13 05:29N 38°42' W 009°09'0 0.0
2018-Apr-13 04:23N 38°42' W 009°09'0 0.0
2018-Apr-13 03:53N 38°42' W 009°09'0 0.0
2018-Apr-13 03:29N 38°42' W 009°09'0 0.0
2018-Apr-13 02:50N 38°42' W 009°09'0 0.0
2018-Apr-13 02:29N 38°42' W 009°09'0 0.0
2018-Apr-13 01:53N 38°42' W 009°09'0 0.0
2018-Apr-13 01:20N 38°42' W 009°09'0 0.0
2018-Apr-13 00:53N 38°42' W 009°09'0 0.0
2018-Apr-12 23:56N 38°42' W 009°09'0 0.0
2018-Apr-12 23:29N 38°42' W 009°09'0 0.0
2018-Apr-12 22:50N 38°42' W 009°09'0 0.0
2018-Apr-12 22:29N 38°42' W 009°09'0 0.0
2018-Apr-12 21:44N 38°42' W 009°09'0 0.0
2018-Apr-12 19:59N 38°42' W 009°09'0 0.0
2018-Apr-12 19:26N 38°42' W 009°09'0 0.0
2018-Apr-12 18:53N 38°42' W 009°09'0 0.0
2018-Apr-12 17:38N 38°42' W 009°09'0 0.0
2018-Apr-12 17:11N 38°42' W 009°09'0 0.0
2018-Apr-12 14:29N 38°42' W 009°09'0 0.0
2018-Apr-12 13:59N 38°42' W 009°09'0 0.0
2018-Apr-12 13:20N 38°42' W 009°09'0 0.0
2018-Apr-12 10:26N 38°42' W 009°09'0 0.0
2018-Apr-12 09:59N 38°42' W 009°09'0 0.0
2018-Apr-12 09:08N 38°42' W 009°09'0 0.0
2018-Apr-12 08:44N 38°42' W 009°09'0 0.0
2018-Apr-12 08:20N 38°42' W 009°09'0 0.0
2018-Apr-12 07:53N 38°42' W 009°09'0 0.0
2018-Apr-12 07:26N 38°42' W 009°09'0 0.0
2018-Apr-12 06:32N 38°42' W 009°09'0 0.0
2018-Apr-12 06:17N 38°42' W 009°09'0 0.0
2018-Apr-12 05:38N 38°42' W 009°09'0 0.0
2018-Apr-12 04:20N 38°42' W 009°09'0 0.0
2018-Apr-12 03:23N 38°42' W 009°09'0 0.0
2018-Apr-12 02:53N 38°42' W 009°09'0 0.0
2018-Apr-12 02:29N 38°42' W 009°09'0 0.0
2018-Apr-12 01:50N 38°42' W 009°09'0 0.0
2018-Apr-12 01:29N 38°42' W 009°09'0 0.0
2018-Apr-12 00:50N 38°42' W 009°09'0 0.0
2018-Apr-12 00:29N 38°42' W 009°09'0 0.0
2018-Apr-11 23:59N 38°42' W 009°09'0 0.0
2018-Apr-11 21:32N 38°42' W 009°09'0 0.0
2018-Apr-11 21:20N 38°42' W 009°09'0 0.0
2018-Apr-11 16:14N 38°42' W 009°09'0 0.0
2018-Apr-11 12:38N 38°42' W 009°09'0 0.0
2018-Apr-11 12:29N 38°42' W 009°09'0 0.0
2018-Apr-11 11:59N 38°42' W 009°09'0 0.0
2018-Apr-11 11:29N 38°42' W 009°09'0 0.0
2018-Apr-11 10:56N 38°42' W 009°09'0 0.0
2018-Apr-11 08:53N 38°42' W 009°09'0 0.0
2018-Apr-11 08:29N 38°42' W 009°09'0 0.0
2018-Apr-11 07:53N 38°42' W 009°09'0 0.0
2018-Apr-11 07:26N 38°42' W 009°09'0 0.0
2018-Apr-11 06:59N 38°42' W 009°09'0 0.0
2018-Apr-11 06:23N 38°42' W 009°09'0 0.0
2018-Apr-11 05:56N 38°42' W 009°09'0 0.0
2018-Apr-11 05:20N 38°42' W 009°09'0 0.0
2018-Apr-11 04:50N 38°42' W 009°09'0 0.0
2018-Apr-11 04:20N 38°42' W 009°09'0 0.0
2018-Apr-11 03:56N 38°42' W 009°09'0 0.0
2018-Apr-11 03:23N 38°42' W 009°09'0 0.0
2018-Apr-11 02:59N 38°42' W 009°09'0 0.0
2018-Apr-11 02:20N 38°42' W 009°09'0 0.0
2018-Apr-11 01:56N 38°42' W 009°09'0 0.0
2018-Apr-11 01:23N 38°42' W 009°09'0 0.0
2018-Apr-11 00:56N 38°42' W 009°09'0 0.0
2018-Apr-11 00:26N 38°42' W 009°09'0 0.0
2018-Apr-10 23:59N 38°42' W 009°09'0 0.0
2018-Apr-10 23:20N 38°42' W 009°09'0 0.0
2018-Apr-10 22:50N 38°42' W 009°09'0 0.0
2018-Apr-10 22:17N 38°42' W 009°09'0 0.0
2018-Apr-10 21:56N 38°42' W 009°09'0 0.0
2018-Apr-10 20:08N 38°42' W 009°09'0 0.0
2018-Apr-10 19:47N 38°42' W 009°09'0 0.0
2018-Apr-10 18:53N 38°42' W 009°09'0 0.0
2018-Apr-10 18:17N 38°42' W 009°09'0 0.0
2018-Apr-10 17:26N 38°42' W 009°09'0 0.0
2018-Apr-10 16:59N 38°42' W 009°09'0 0.0
2018-Apr-10 16:26N 38°42' W 009°09'0 0.0
2018-Apr-10 15:56N 38°42' W 009°09'0 0.0
2018-Apr-10 15:17N 38°42' W 009°09'0 0.0
2018-Apr-10 14:41N 38°42' W 009°09'0 0.0
2018-Apr-10 14:26N 38°42' W 009°09'0 0.0
2018-Apr-10 13:26N 38°42' W 009°09'0 0.0
2018-Apr-10 12:53N 38°42' W 009°09'0 0.0
2018-Apr-10 12:14N 38°42' W 009°09'0 0.0
2018-Apr-10 11:17N 38°42' W 009°09'0 0.0
2018-Apr-10 10:50N 38°42' W 009°09'0 0.0
2018-Apr-10 10:17N 38°42' W 009°09'0 0.0
2018-Apr-10 09:59N 38°42' W 009°09'0 0.0
2018-Apr-10 09:17N 38°42' W 009°09'0 0.0
2018-Apr-10 08:26N 38°42' W 009°09'0 0.0
2018-Apr-10 07:53N 38°42' W 009°09'0 0.0
2018-Apr-10 07:23N 38°42' W 009°09'0 0.0
2018-Apr-10 06:53N 38°42' W 009°09'0 0.0
2018-Apr-10 05:29N 38°42' W 009°09'0 0.0
2018-Apr-10 04:59N 38°42' W 009°09'0 0.0
2018-Apr-10 01:05N 38°42' W 009°09'0 0.0
2018-Apr-10 00:56N 38°42' W 009°09'0 0.0
2018-Apr-09 23:53N 38°42' W 009°09'0 0.0
2018-Apr-09 23:02N 38°42' W 009°09'0 0.0
2018-Apr-09 22:59N 38°42' W 009°09'0 0.0
2018-Apr-09 22:26N 38°42' W 009°09'0 0.0
2018-Apr-09 21:50N 38°42' W 009°09'0 0.0
2018-Apr-09 21:17N 38°42' W 009°09'0 0.0
2018-Apr-09 20:59N 38°42' W 009°09'0 0.0
2018-Apr-09 20:20N 38°42' W 009°09'0 0.0
2018-Apr-09 18:38N 38°42' W 009°09'0 0.0
2018-Apr-09 18:20N 38°42' W 009°09'0 0.0
2018-Apr-09 14:38N 38°42' W 009°09'0 0.0
2018-Apr-09 14:26N 38°42' W 009°09'0 0.0
2018-Apr-09 09:56N 38°42' W 009°09'0 0.0
2018-Apr-09 08:59N 38°42' W 009°09'0 0.0
2018-Apr-09 08:26N 38°42' W 009°09'0 0.0
2018-Apr-09 07:56N 38°42' W 009°09'0 0.0
2018-Apr-09 07:26N 38°42' W 009°09'0 0.0
2018-Apr-09 06:59N 38°42' W 009°09'0 0.0
2018-Apr-09 06:02N 38°42' W 009°09'0 0.0
2018-Apr-09 05:53N 38°42' W 009°09'0 0.0
2018-Apr-09 05:26N 38°42' W 009°09'0 0.0
2018-Apr-09 04:53N 38°42' W 009°09'0 0.0
2018-Apr-09 04:20N 38°42' W 009°09'0 0.0
2018-Apr-09 03:53N 38°42' W 009°09'0 0.0
2018-Apr-09 03:14N 38°42' W 009°09'0 0.0
2018-Apr-09 02:50N 38°42' W 009°09'0 0.0
2018-Apr-09 02:26N 38°42' W 009°09'0 0.0
2018-Apr-09 01:56N 38°42' W 009°09'0 0.0
2018-Apr-09 01:26N 38°42' W 009°09'0 0.0
2018-Apr-09 00:59N 38°42' W 009°09'0 0.0
2018-Apr-09 00:14N 38°42' W 009°09'0 0.0
2018-Apr-08 23:59N 38°42' W 009°09'0 0.0
2018-Apr-08 23:23N 38°42' W 009°09'0 0.0
2018-Apr-08 22:59N 38°42' W 009°09'0 0.0
2018-Apr-08 22:17N 38°42' W 009°09'0 0.0
2018-Apr-08 21:56N 38°42' W 009°09'0 0.0
2018-Apr-08 21:14N 38°42' W 009°09'0 0.0
2018-Apr-08 20:53N 38°42' W 009°09'0 0.0
2018-Apr-08 20:29N 38°42' W 009°09'0 0.0
2018-Apr-08 19:59N 38°42' W 009°09'0 0.0
2018-Apr-08 19:23N 38°42' W 009°09'0 0.0
2018-Apr-08 18:38N 38°42' W 009°09'0 0.0
2018-Apr-08 18:26N 38°42' W 009°09'0 0.0
2018-Apr-08 17:41N 38°42' W 009°09'0 0.0
2018-Apr-08 17:29N 38°42' W 009°09'0 0.0
2018-Apr-08 16:59N 38°42' W 009°09'0 0.0
2018-Apr-08 16:05N 38°42' W 009°09'0 0.0
2018-Apr-08 14:53N 38°42' W 009°09'0 0.0
2018-Apr-08 12:44N 38°42' W 009°09'0 0.0
2018-Apr-08 12:29N 38°42' W 009°09'0 0.0
2018-Apr-08 11:56N 38°42' W 009°09'0 0.0
2018-Apr-08 11:20N 38°42' W 009°09'0 0.0
2018-Apr-08 10:14N 38°42' W 009°09'0 0.0
2018-Apr-08 09:53N 38°42' W 009°09'0 0.0
2018-Apr-08 09:11N 38°42' W 009°09'0 0.0
2018-Apr-08 08:53N 38°42' W 009°09'0 0.0
2018-Apr-08 08:23N 38°42' W 009°09'0 0.0
2018-Apr-08 07:56N 38°42' W 009°09'0 0.0
2018-Apr-08 07:17N 38°42' W 009°09'0 0.0
2018-Apr-08 06:32N 38°42' W 009°09'0 0.0
2018-Apr-08 06:02N 38°42' W 009°09'0 0.0
2018-Apr-08 05:11N 38°42' W 009°09'0 0.0
2018-Apr-08 04:53N 38°42' W 009°09'0 0.0
2018-Apr-08 04:26N 38°42' W 009°09'0 0.0
2018-Apr-08 03:47N 38°42' W 009°09'0 0.0
2018-Apr-08 03:17N 38°42' W 009°09'0 0.0
2018-Apr-08 02:59N 38°42' W 009°09'0 0.0
2018-Apr-08 02:26N 38°42' W 009°09'0 0.0
2018-Apr-08 01:41N 38°42' W 009°09'0 0.0
2018-Apr-08 01:29N 38°42' W 009°09'0 0.0
2018-Apr-08 00:53N 38°42' W 009°09'0 0.0
2018-Apr-08 00:26N 38°42' W 009°09'0 0.0
2018-Apr-07 23:59N 38°42' W 009°09'0 0.0
2018-Apr-07 23:11N 38°42' W 009°09'0 0.0
2018-Apr-07 22:59N 38°42' W 009°09'0 0.0
2018-Apr-07 22:29N 38°42' W 009°09'0 0.0
2018-Apr-07 21:56N 38°42' W 009°09'0 0.0
2018-Apr-07 21:29N 38°42' W 009°09'0 0.0
2018-Apr-07 20:53N 38°42' W 009°09'0 0.0
2018-Apr-07 20:14N 38°42' W 009°09'0 0.0
2018-Apr-07 19:56N 38°42' W 009°09'0 0.0
2018-Apr-07 19:17N 38°42' W 009°09'0 0.0
2018-Apr-07 18:59N 38°42' W 009°09'0 0.0
2018-Apr-07 18:29N 38°42' W 009°09'0 0.0
2018-Apr-07 17:35N 38°42' W 009°09'0 0.0
2018-Apr-07 17:08N 38°42' W 009°09'0 0.0
2018-Apr-07 16:53N 38°42' W 009°09'0 0.0
2018-Apr-07 16:26N 38°42' W 009°09'0 0.0
2018-Apr-07 15:56N 38°42' W 009°09'0 0.0
2018-Apr-07 15:20N 38°42' W 009°09'0 0.0
2018-Apr-07 14:56N 38°42' W 009°09'0 0.0
2018-Apr-07 14:26N 38°42' W 009°09'0 0.0
2018-Apr-07 13:53N 38°42' W 009°09'0 0.0
2018-Apr-07 13:17N 38°42' W 009°09'0 0.0
2018-Apr-07 12:59N 38°42' W 009°09'0 0.0
2018-Apr-07 12:20N 38°42' W 009°09'0 0.0
2018-Apr-07 11:29N 38°42' W 009°09'0 0.0
2018-Apr-07 10:59N 38°42' W 009°09'0 0.0
2018-Apr-07 10:23N 38°42' W 009°09'0 0.0
2018-Apr-07 09:53N 38°42' W 009°09'0 0.0
2018-Apr-07 09:29N 38°42' W 009°09'0 0.0
2018-Apr-07 08:56N 38°42' W 009°09'0 0.0
2018-Apr-07 08:26N 38°42' W 009°09'0 0.0
2018-Apr-07 07:56N 38°42' W 009°09'0 0.0
2018-Apr-07 06:35N 38°42' W 009°09'0 0.0
2018-Apr-07 06:26N 38°42' W 009°09'0 0.0
2018-Apr-07 05:53N 38°42' W 009°09'0 0.0
2018-Apr-07 05:17N 38°42' W 009°09'0 0.0
2018-Apr-07 04:53N 38°42' W 009°09'0 0.0
2018-Apr-07 04:26N 38°42' W 009°09'0 0.0
2018-Apr-07 03:56N 38°42' W 009°09'0 0.0
2018-Apr-07 03:23N 38°42' W 009°09'0 0.0
2018-Apr-07 02:56N 38°42' W 009°09'0 0.0
2018-Apr-07 01:35N 38°42' W 009°09'0 0.0
2018-Apr-07 01:26N 38°42' W 009°09'0 0.0
2018-Apr-07 00:53N 38°42' W 009°09'0 0.0
2018-Apr-07 00:02N 38°42' W 009°09'0 0.0
2018-Apr-06 23:47N 38°42' W 009°09'0 0.0
2018-Apr-06 23:29N 38°42' W 009°09'0 0.0
2018-Apr-06 22:59N 38°42' W 009°09'0 0.0
2018-Apr-06 21:41N 38°42' W 009°09'0 0.0
2018-Apr-06 21:26N 38°42' W 009°09'0 0.0
2018-Apr-06 20:59N 38°42' W 009°09'0 0.0
2018-Apr-06 19:56N 38°42' W 009°09'0 0.0
2018-Apr-06 19:26N 38°42' W 009°09'0 0.0
2018-Apr-06 18:50N 38°42' W 009°09'0 0.0
2018-Apr-06 18:26N 38°42' W 009°09'0 0.0
2018-Apr-06 17:56N 38°42' W 009°09'0 0.0
2018-Apr-06 17:20N 38°42' W 009°09'0 0.0
2018-Apr-06 16:56N 38°42' W 009°09'0 0.0
2018-Apr-06 16:29N 38°42' W 009°09'0 0.0
2018-Apr-06 15:56N 38°42' W 009°09'0 0.0
2018-Apr-06 15:29N 38°42' W 009°09'0 0.0
2018-Apr-06 14:56N 38°42' W 009°09'0 0.0
2018-Apr-06 14:29N 38°42' W 009°09'0 0.0
2018-Apr-06 14:00N 38°42' W 009°09'0 0.5
2018-Apr-06 13:29N 38°42' W 009°10'3 5.8
2018-Apr-06 12:53N 38°41' W 009°14'2 5.3
2018-Apr-06 12:30N 38°41' W 009°17'3 5.5
2018-Apr-06 12:00N 38°39' W 009°19'2 4.3
2018-Apr-06 11:30N 38°38' W 009°21'3 5.5
2018-Apr-06 11:00N 38°37' W 009°25'3 5.5
2018-Apr-06 10:30N 38°38' W 009°28'1 1.5
2018-Apr-06 10:00N 38°38' W 009°28'1 1.6
2018-Apr-06 09:30N 38°38' W 009°29'1 1.6
2018-Apr-06 09:00N 38°38' W 009°30'1 2.1
2018-Apr-06 08:29N 38°37' W 009°29'1 3.0
2018-Apr-06 08:00N 38°37' W 009°27'1 2.0
2018-Apr-06 07:30N 38°37' W 009°28'3 6.0
2018-Apr-06 07:01N 38°37' W 009°32'4 7.1
2018-Apr-06 06:30N 38°36' W 009°36'4 8.0
2018-Apr-06 06:00N 38°35' W 009°41'4 7.6
2018-Apr-06 05:30N 38°32' W 009°43'4 7.9
2018-Apr-06 05:00N 38°28' W 009°43'4 7.8
2018-Apr-06 04:30N 38°24' W 009°43'4 7.7
2018-Apr-06 04:00N 38°20' W 009°42'4 7.2
2018-Apr-06 03:30N 38°16' W 009°41'4 7.8
2018-Apr-06 03:00N 38°13' W 009°40'4 7.9
2018-Apr-06 02:30N 38°09' W 009°39'5 7.9
2018-Apr-06 01:56N 38°04' W 009°38'3 8.0
2018-Apr-06 01:30N 38°01' W 009°37'5 8.1
2018-Apr-06 00:56N 37°56' W 009°36'3 7.9
2018-Apr-06 00:30N 37°53' W 009°36'4 7.8
2018-Apr-06 00:00N 37°49' W 009°35'4 7.6
2018-Apr-05 23:30N 37°45' W 009°34'4 7.4
2018-Apr-05 23:00N 37°42' W 009°33'4 7.6
2018-Apr-05 22:30N 37°38' W 009°32'10 7.5
2018-Apr-05 21:10N 37°28' W 009°29'4 7.7
2018-Apr-05 20:40N 37°25' W 009°28'1 7.5
2018-Apr-05 20:30N 37°23' W 009°28'13 7.7
2018-Apr-05 18:49N 37°11' W 009°23'8 7.7
2018-Apr-05 17:47N 37°03' W 009°21'2 7.9
2018-Apr-05 17:30N 37°01' W 009°20'8 7.7
2018-Apr-05 16:24N 36°53' W 009°17'4 7.8
2018-Apr-05 15:56N 36°50' W 009°15'3 7.5
2018-Apr-05 15:30N 36°47' W 009°12'4 7.3
2018-Apr-05 14:59N 36°45' W 009°08'4 7.4
2018-Apr-05 14:30N 36°44' W 009°04'4 7.5
2018-Apr-05 14:00N 36°44' W 008°59'4 7.6
2018-Apr-05 13:27N 36°45' W 008°54'3 7.7
2018-Apr-05 13:01N 36°47' W 008°51'4 7.9
2018-Apr-05 12:30N 36°50' W 008°47'4 8.1
2018-Apr-05 12:00N 36°53' W 008°44'4 8.1
2018-Apr-05 11:30N 36°57' W 008°41'4 8.1
2018-Apr-05 11:00N 36°60' W 008°38'2 4.1
2018-Apr-05 10:29N 37°01' W 008°36'0 1.0
2018-Apr-05 10:00N 37°02' W 008°36'2 3.1
2018-Apr-05 09:25N 37°03' W 008°35'0 0.0
2018-Apr-05 08:49N 37°03' W 008°35'0 0.0
2018-Apr-05 08:19N 37°03' W 008°35'0 0.0
2018-Apr-05 07:55N 37°03' W 008°35'0 0.0
2018-Apr-05 07:25N 37°03' W 008°35'0 0.1
2018-Apr-05 06:58N 37°03' W 008°35'0 0.0
2018-Apr-05 06:28N 37°03' W 008°35'0 0.0
2018-Apr-05 05:01N 37°03' W 008°35'0 0.0
2018-Apr-05 04:58N 37°03' W 008°35'0 0.1
2018-Apr-05 04:28N 37°03' W 008°35'0 0.0
2018-Apr-05 02:55N 37°03' W 008°35'0 0.0
2018-Apr-05 02:25N 37°03' W 008°35'0 0.0
2018-Apr-05 01:55N 37°03' W 008°35'0 0.0
2018-Apr-05 01:28N 37°03' W 008°35'0 0.0
2018-Apr-05 00:55N 37°03' W 008°35'0 0.0
2018-Apr-05 00:28N 37°03' W 008°35'0 0.0
2018-Apr-04 23:55N 37°03' W 008°35'0 0.0
2018-Apr-04 23:25N 37°03' W 008°35'0 0.0
2018-Apr-04 22:55N 37°03' W 008°35'0 0.1
2018-Apr-04 22:25N 37°03' W 008°35'0 0.0
2018-Apr-04 21:55N 37°03' W 008°35'0 0.0
2018-Apr-04 21:28N 37°03' W 008°35'0 0.0
2018-Apr-04 20:55N 37°03' W 008°35'0 0.0
2018-Apr-04 20:25N 37°03' W 008°35'0 0.0
2018-Apr-04 19:55N 37°03' W 008°35'0 0.0
2018-Apr-04 19:25N 37°03' W 008°35'0 0.0
2018-Apr-04 18:49N 37°03' W 008°35'0 0.0
2018-Apr-04 18:25N 37°03' W 008°35'0 0.0
2018-Apr-04 17:55N 37°03' W 008°35'0 0.0
2018-Apr-04 17:25N 37°03' W 008°35'0 0.0
2018-Apr-04 16:55N 37°03' W 008°35'0 0.0
2018-Apr-04 16:25N 37°03' W 008°35'0 0.1
2018-Apr-04 15:55N 37°03' W 008°35'0 0.0
2018-Apr-04 15:28N 37°03' W 008°35'0 0.0
2018-Apr-04 14:55N 37°03' W 008°35'0 0.0
2018-Apr-04 14:28N 37°03' W 008°35'0 0.0
2018-Apr-04 13:55N 37°03' W 008°35'0 0.0
2018-Apr-04 13:25N 37°03' W 008°35'0 0.0
2018-Apr-04 12:58N 37°03' W 008°35'0 0.0
2018-Apr-04 12:25N 37°03' W 008°35'0 0.0
2018-Apr-04 11:55N 37°03' W 008°35'0 0.0
2018-Apr-04 11:28N 37°03' W 008°35'0 0.0
2018-Apr-04 10:58N 37°03' W 008°35'0 0.0
2018-Apr-04 10:25N 37°03' W 008°35'0 0.0
2018-Apr-04 09:55N 37°03' W 008°35'0 0.0
2018-Apr-04 09:25N 37°03' W 008°35'0 0.0
2018-Apr-04 08:58N 37°03' W 008°35'0 0.0
2018-Apr-04 08:25N 37°03' W 008°35'0 0.0
2018-Apr-04 07:55N 37°03' W 008°35'0 0.0
2018-Apr-04 07:25N 37°03' W 008°35'0 0.0
2018-Apr-04 06:55N 37°03' W 008°35'  
Track history (hours):
 
Tides and Currents Weather Stations Pressure Air Temp Water Temp Dewpoint Dewpoint Depression Visibility Wind Speed Wind Dir Waves Ship Positions

Atalanti

Last reported at 2018-Apr-14 06:50 UTC. Time now 2018-Apr-19 13:27 UTC.
Position N 39°24' W 009°56'.

Length 97 m; draft 4.2 m.

Type: Other ship. MMSI: 212279000.

Date/timePositionNaut miles runAvg speedWind from/ knotsBaromVisibWave heightAir tempDewpointWater temp
2018-Apr-14 06:50N 39°24' W 009°56'2 5.9
2018-Apr-14 06:29N 39°22' W 009°55'3 5.7
2018-Apr-14 05:58N 39°20' W 009°54'3 5.7
2018-Apr-14 05:30N 39°17' W 009°53'3 5.7
2018-Apr-14 05:00N 39°15' W 009°52'3 5.8
2018-Apr-14 04:30N 39°12' W 009°51'3 5.9
2018-Apr-14 04:00N 39°09' W 009°49'3 5.8
2018-Apr-14 03:30N 39°06' W 009°48'3 5.8
2018-Apr-14 03:00N 39°03' W 009°47'3 5.8
2018-Apr-14 02:30N 39°01' W 009°46'3 5.6
2018-Apr-14 02:01N 38°58' W 009°45'3 5.7
2018-Apr-14 01:30N 38°55' W 009°44'3 5.9
2018-Apr-14 01:00N 38°52' W 009°43'3 5.9
2018-Apr-14 00:30N 38°49' W 009°43'3 6.1
2018-Apr-14 00:00N 38°46' W 009°42'3 6.0
2018-Apr-13 23:30N 38°44' W 009°42'3 5.6
2018-Apr-13 23:00N 38°41' W 009°41'2 5.0
2018-Apr-13 22:31N 38°39' W 009°39'3 5.4
2018-Apr-13 22:00N 38°38' W 009°36'3 5.3
2018-Apr-13 21:30N 38°37' W 009°33'2 4.8
2018-Apr-13 21:00N 38°37' W 009°30'2 4.5
2018-Apr-13 20:30N 38°36' W 009°27'0 0.9
2018-Apr-13 20:00N 38°36' W 009°27'1 2.8
2018-Apr-13 19:30N 38°36' W 009°26'3 5.4
2018-Apr-13 19:00N 38°37' W 009°22'3 6.8
2018-Apr-13 18:31N 38°40' W 009°19'5 7.3
2018-Apr-13 17:54N 38°41' W 009°14'3 8.2
2018-Apr-13 17:29N 38°42' W 009°10'0 0.6
2018-Apr-13 16:59N 38°42' W 009°09'0 0.0
2018-Apr-13 16:26N 38°42' W 009°09'0 0.0
2018-Apr-13 15:59N 38°42' W 009°09'0 0.0
2018-Apr-13 15:29N 38°42' W 009°09'0 0.0
2018-Apr-13 14:56N 38°42' W 009°09'0 0.0
2018-Apr-13 14:17N 38°42' W 009°09'0 0.0
2018-Apr-13 13:56N 38°42' W 009°09'0 0.0
2018-Apr-13 13:02N 38°42' W 009°09'0 0.0
2018-Apr-13 12:53N 38°42' W 009°09'0 0.0
2018-Apr-13 12:26N 38°42' W 009°09'0 0.0
2018-Apr-13 11:56N 38°42' W 009°09'0 0.0
2018-Apr-13 11:17N 38°42' W 009°09'0 0.0
2018-Apr-13 08:29N 38°42' W 009°09'0 0.0
2018-Apr-13 07:47N 38°42' W 009°09'0 0.0
2018-Apr-13 07:26N 38°42' W 009°09'0 0.0
2018-Apr-13 06:41N 38°42' W 009°09'0 0.0
2018-Apr-13 06:23N 38°42' W 009°09'0 0.0
2018-Apr-13 05:59N 38°42' W 009°09'0 0.0
2018-Apr-13 05:29N 38°42' W 009°09'0 0.0
2018-Apr-13 04:23N 38°42' W 009°09'0 0.0
2018-Apr-13 03:53N 38°42' W 009°09'0 0.0
2018-Apr-13 03:29N 38°42' W 009°09'0 0.0
2018-Apr-13 02:50N 38°42' W 009°09'0 0.0
2018-Apr-13 02:29N 38°42' W 009°09'0 0.0
2018-Apr-13 01:53N 38°42' W 009°09'0 0.0
2018-Apr-13 01:20N 38°42' W 009°09'0 0.0
2018-Apr-13 00:53N 38°42' W 009°09'0 0.0
2018-Apr-12 23:56N 38°42' W 009°09'0 0.0
2018-Apr-12 23:29N 38°42' W 009°09'0 0.0
2018-Apr-12 22:50N 38°42' W 009°09'0 0.0
2018-Apr-12 22:29N 38°42' W 009°09'0 0.0
2018-Apr-12 21:44N 38°42' W 009°09'0 0.0
2018-Apr-12 19:59N 38°42' W 009°09'0 0.0
2018-Apr-12 19:26N 38°42' W 009°09'0 0.0
2018-Apr-12 18:53N 38°42' W 009°09'0 0.0
2018-Apr-12 17:38N 38°42' W 009°09'0 0.0
2018-Apr-12 17:11N 38°42' W 009°09'0 0.0
2018-Apr-12 14:29N 38°42' W 009°09'0 0.0
2018-Apr-12 13:59N 38°42' W 009°09'0 0.0
2018-Apr-12 13:20N 38°42' W 009°09'0 0.0
2018-Apr-12 10:26N 38°42' W 009°09'0 0.0
2018-Apr-12 09:59N 38°42' W 009°09'0 0.0
2018-Apr-12 09:08N 38°42' W 009°09'0 0.0
2018-Apr-12 08:44N 38°42' W 009°09'0 0.0
2018-Apr-12 08:20N 38°42' W 009°09'0 0.0
2018-Apr-12 07:53N 38°42' W 009°09'0 0.0
2018-Apr-12 07:26N 38°42' W 009°09'0 0.0
2018-Apr-12 06:32N 38°42' W 009°09'0 0.0
2018-Apr-12 06:17N 38°42' W 009°09'0 0.0
2018-Apr-12 05:38N 38°42' W 009°09'0 0.0
2018-Apr-12 04:20N 38°42' W 009°09'0 0.0
2018-Apr-12 03:23N 38°42' W 009°09'0 0.0
2018-Apr-12 02:53N 38°42' W 009°09'0 0.0
2018-Apr-12 02:29N 38°42' W 009°09'0 0.0
2018-Apr-12 01:50N 38°42' W 009°09'0 0.0
2018-Apr-12 01:29N 38°42' W 009°09'0 0.0
2018-Apr-12 00:50N 38°42' W 009°09'0 0.0
2018-Apr-12 00:29N 38°42' W 009°09'0 0.0
2018-Apr-11 23:59N 38°42' W 009°09'0 0.0
2018-Apr-11 21:32N 38°42' W 009°09'0 0.0
2018-Apr-11 21:20N 38°42' W 009°09'0 0.0
2018-Apr-11 16:14N 38°42' W 009°09'0 0.0
2018-Apr-11 12:38N 38°42' W 009°09'0 0.0
2018-Apr-11 12:29N 38°42' W 009°09'0 0.0
2018-Apr-11 11:59N 38°42' W 009°09'0 0.0
2018-Apr-11 11:29N 38°42' W 009°09'0 0.0
2018-Apr-11 10:56N 38°42' W 009°09'0 0.0
2018-Apr-11 08:53N 38°42' W 009°09'0 0.0
2018-Apr-11 08:29N 38°42' W 009°09'0 0.0
2018-Apr-11 07:53N 38°42' W 009°09'0 0.0
2018-Apr-11 07:26N 38°42' W 009°09'0 0.0
2018-Apr-11 06:59N 38°42' W 009°09'0 0.0
2018-Apr-11 06:23N 38°42' W 009°09'0 0.0
2018-Apr-11 05:56N 38°42' W 009°09'0 0.0
2018-Apr-11 05:20N 38°42' W 009°09'0 0.0
2018-Apr-11 04:50N 38°42' W 009°09'0 0.0
2018-Apr-11 04:20N 38°42' W 009°09'0 0.0
2018-Apr-11 03:56N 38°42' W 009°09'0 0.0
2018-Apr-11 03:23N 38°42' W 009°09'0 0.0
2018-Apr-11 02:59N 38°42' W 009°09'0 0.0
2018-Apr-11 02:20N 38°42' W 009°09'0 0.0
2018-Apr-11 01:56N 38°42' W 009°09'0 0.0
2018-Apr-11 01:23N 38°42' W 009°09'0 0.0
2018-Apr-11 00:56N 38°42' W 009°09'0 0.0
2018-Apr-11 00:26N 38°42' W 009°09'0 0.0
2018-Apr-10 23:59N 38°42' W 009°09'0 0.0
2018-Apr-10 23:20N 38°42' W 009°09'0 0.0
2018-Apr-10 22:50N 38°42' W 009°09'0 0.0
2018-Apr-10 22:17N 38°42' W 009°09'0 0.0
2018-Apr-10 21:56N 38°42' W 009°09'0 0.0
2018-Apr-10 20:08N 38°42' W 009°09'0 0.0
2018-Apr-10 19:47N 38°42' W 009°09'0 0.0
2018-Apr-10 18:53N 38°42' W 009°09'0 0.0
2018-Apr-10 18:17N 38°42' W 009°09'0 0.0
2018-Apr-10 17:26N 38°42' W 009°09'0 0.0
2018-Apr-10 16:59N 38°42' W 009°09'0 0.0
2018-Apr-10 16:26N 38°42' W 009°09'0 0.0
2018-Apr-10 15:56N 38°42' W 009°09'0 0.0
2018-Apr-10 15:17N 38°42' W 009°09'0 0.0
2018-Apr-10 14:41N 38°42' W 009°09'0 0.0
2018-Apr-10 14:26N 38°42' W 009°09'0 0.0
2018-Apr-10 13:26N 38°42' W 009°09'0 0.0
2018-Apr-10 12:53N 38°42' W 009°09'0 0.0
2018-Apr-10 12:14N 38°42' W 009°09'0 0.0
2018-Apr-10 11:17N 38°42' W 009°09'0 0.0
2018-Apr-10 10:50N 38°42' W 009°09'0 0.0
2018-Apr-10 10:17N 38°42' W 009°09'0 0.0
2018-Apr-10 09:59N 38°42' W 009°09'0 0.0
2018-Apr-10 09:17N 38°42' W 009°09'0 0.0
2018-Apr-10 08:26N 38°42' W 009°09'0 0.0
2018-Apr-10 07:53N 38°42' W 009°09'0 0.0
2018-Apr-10 07:23N 38°42' W 009°09'0 0.0
2018-Apr-10 06:53N 38°42' W 009°09'0 0.0
2018-Apr-10 05:29N 38°42' W 009°09'0 0.0
2018-Apr-10 04:59N 38°42' W 009°09'0 0.0
2018-Apr-10 01:05N 38°42' W 009°09'0 0.0
2018-Apr-10 00:56N 38°42' W 009°09'0 0.0
2018-Apr-09 23:53N 38°42' W 009°09'0 0.0
2018-Apr-09 23:02N 38°42' W 009°09'0 0.0
2018-Apr-09 22:59N 38°42' W 009°09'0 0.0
2018-Apr-09 22:26N 38°42' W 009°09'0 0.0
2018-Apr-09 21:50N 38°42' W 009°09'0 0.0
2018-Apr-09 21:17N 38°42' W 009°09'0 0.0
2018-Apr-09 20:59N 38°42' W 009°09'0 0.0
2018-Apr-09 20:20N 38°42' W 009°09'0 0.0
2018-Apr-09 18:38N 38°42' W 009°09'0 0.0
2018-Apr-09 18:20N 38°42' W 009°09'0 0.0
2018-Apr-09 14:38N 38°42' W 009°09'0 0.0
2018-Apr-09 14:26N 38°42' W 009°09'0 0.0
2018-Apr-09 09:56N 38°42' W 009°09'0 0.0
2018-Apr-09 08:59N 38°42' W 009°09'0 0.0
2018-Apr-09 08:26N 38°42' W 009°09'0 0.0
2018-Apr-09 07:56N 38°42' W 009°09'0 0.0
2018-Apr-09 07:26N 38°42' W 009°09'0 0.0
2018-Apr-09 06:59N 38°42' W 009°09'0 0.0
2018-Apr-09 06:02N 38°42' W 009°09'0 0.0
2018-Apr-09 05:53N 38°42' W 009°09'0 0.0
2018-Apr-09 05:26N 38°42' W 009°09'0 0.0
2018-Apr-09 04:53N 38°42' W 009°09'0 0.0
2018-Apr-09 04:20N 38°42' W 009°09'0 0.0
2018-Apr-09 03:53N 38°42' W 009°09'0 0.0
2018-Apr-09 03:14N 38°42' W 009°09'0 0.0
2018-Apr-09 02:50N 38°42' W 009°09'0 0.0
2018-Apr-09 02:26N 38°42' W 009°09'0 0.0
2018-Apr-09 01:56N 38°42' W 009°09'0 0.0
2018-Apr-09 01:26N 38°42' W 009°09'0 0.0
2018-Apr-09 00:59N 38°42' W 009°09'0 0.0
2018-Apr-09 00:14N 38°42' W 009°09'0 0.0
2018-Apr-08 23:59N 38°42' W 009°09'0 0.0
2018-Apr-08 23:23N 38°42' W 009°09'0 0.0
2018-Apr-08 22:59N 38°42' W 009°09'0 0.0
2018-Apr-08 22:17N 38°42' W 009°09'0 0.0
2018-Apr-08 21:56N 38°42' W 009°09'0 0.0
2018-Apr-08 21:14N 38°42' W 009°09'0 0.0
2018-Apr-08 20:53N 38°42' W 009°09'0 0.0
2018-Apr-08 20:29N 38°42' W 009°09'0 0.0
2018-Apr-08 19:59N 38°42' W 009°09'0 0.0
2018-Apr-08 19:23N 38°42' W 009°09'0 0.0
2018-Apr-08 18:38N 38°42' W 009°09'0 0.0
2018-Apr-08 18:26N 38°42' W 009°09'0 0.0
2018-Apr-08 17:41N 38°42' W 009°09'0 0.0
2018-Apr-08 17:29N 38°42' W 009°09'0 0.0
2018-Apr-08 16:59N 38°42' W 009°09'0 0.0
2018-Apr-08 16:05N 38°42' W 009°09'0 0.0
2018-Apr-08 14:53N 38°42' W 009°09'0 0.0
2018-Apr-08 12:44N 38°42' W 009°09'0 0.0
2018-Apr-08 12:29N 38°42' W 009°09'0 0.0
2018-Apr-08 11:56N 38°42' W 009°09'0 0.0
2018-Apr-08 11:20N 38°42' W 009°09'0 0.0
2018-Apr-08 10:14N 38°42' W 009°09'0 0.0
2018-Apr-08 09:53N 38°42' W 009°09'0 0.0
2018-Apr-08 09:11N 38°42' W 009°09'0 0.0
2018-Apr-08 08:53N 38°42' W 009°09'0 0.0
2018-Apr-08 08:23N 38°42' W 009°09'0 0.0
2018-Apr-08 07:56N 38°42' W 009°09'0 0.0
2018-Apr-08 07:17N 38°42' W 009°09'0 0.0
2018-Apr-08 06:32N 38°42' W 009°09'0 0.0
2018-Apr-08 06:02N 38°42' W 009°09'0 0.0
2018-Apr-08 05:11N 38°42' W 009°09'0 0.0
2018-Apr-08 04:53N 38°42' W 009°09'0 0.0
2018-Apr-08 04:26N 38°42' W 009°09'0 0.0
2018-Apr-08 03:47N 38°42' W 009°09'0 0.0
2018-Apr-08 03:17N 38°42' W 009°09'0 0.0
2018-Apr-08 02:59N 38°42' W 009°09'0 0.0
2018-Apr-08 02:26N 38°42' W 009°09'0 0.0
2018-Apr-08 01:41N 38°42' W 009°09'0 0.0
2018-Apr-08 01:29N 38°42' W 009°09'0 0.0
2018-Apr-08 00:53N 38°42' W 009°09'0 0.0
2018-Apr-08 00:26N 38°42' W 009°09'0 0.0
2018-Apr-07 23:59N 38°42' W 009°09'0 0.0
2018-Apr-07 23:11N 38°42' W 009°09'0 0.0
2018-Apr-07 22:59N 38°42' W 009°09'0 0.0
2018-Apr-07 22:29N 38°42' W 009°09'0 0.0
2018-Apr-07 21:56N 38°42' W 009°09'0 0.0
2018-Apr-07 21:29N 38°42' W 009°09'0 0.0
2018-Apr-07 20:53N 38°42' W 009°09'0 0.0
2018-Apr-07 20:14N 38°42' W 009°09'0 0.0
2018-Apr-07 19:56N 38°42' W 009°09'0 0.0
2018-Apr-07 19:17N 38°42' W 009°09'0 0.0
2018-Apr-07 18:59N 38°42' W 009°09'0 0.0
2018-Apr-07 18:29N 38°42' W 009°09'0 0.0
2018-Apr-07 17:35N 38°42' W 009°09'0 0.0
2018-Apr-07 17:08N 38°42' W 009°09'0 0.0
2018-Apr-07 16:53N 38°42' W 009°09'0 0.0
2018-Apr-07 16:26N 38°42' W 009°09'0 0.0
2018-Apr-07 15:56N 38°42' W 009°09'0 0.0
2018-Apr-07 15:20N 38°42' W 009°09'0 0.0
2018-Apr-07 14:56N 38°42' W 009°09'0 0.0
2018-Apr-07 14:26N 38°42' W 009°09'0 0.0
2018-Apr-07 13:53N 38°42' W 009°09'0 0.0
2018-Apr-07 13:17N 38°42' W 009°09'0 0.0
2018-Apr-07 12:59N 38°42' W 009°09'0 0.0
2018-Apr-07 12:20N 38°42' W 009°09'0 0.0
2018-Apr-07 11:29N 38°42' W 009°09'0 0.0
2018-Apr-07 10:59N 38°42' W 009°09'0 0.0
2018-Apr-07 10:23N 38°42' W 009°09'0 0.0
2018-Apr-07 09:53N 38°42' W 009°09'0 0.0
2018-Apr-07 09:29N 38°42' W 009°09'0 0.0
2018-Apr-07 08:56N 38°42' W 009°09'0 0.0
2018-Apr-07 08:26N 38°42' W 009°09'0 0.0
2018-Apr-07 07:56N 38°42' W 009°09'0 0.0
2018-Apr-07 06:35N 38°42' W 009°09'0 0.0
2018-Apr-07 06:26N 38°42' W 009°09'0 0.0
2018-Apr-07 05:53N 38°42' W 009°09'0 0.0
2018-Apr-07 05:17N 38°42' W 009°09'0 0.0
2018-Apr-07 04:53N 38°42' W 009°09'0 0.0
2018-Apr-07 04:26N 38°42' W 009°09'0 0.0
2018-Apr-07 03:56N 38°42' W 009°09'0 0.0
2018-Apr-07 03:23N 38°42' W 009°09'0 0.0
2018-Apr-07 02:56N 38°42' W 009°09'0 0.0
2018-Apr-07 01:35N 38°42' W 009°09'0 0.0
2018-Apr-07 01:26N 38°42' W 009°09'0 0.0
2018-Apr-07 00:53N 38°42' W 009°09'0 0.0
2018-Apr-07 00:02N 38°42' W 009°09'0 0.0
2018-Apr-06 23:47N 38°42' W 009°09'0 0.0
2018-Apr-06 23:29N 38°42' W 009°09'0 0.0
2018-Apr-06 22:59N 38°42' W 009°09'0 0.0
2018-Apr-06 21:41N 38°42' W 009°09'0 0.0
2018-Apr-06 21:26N 38°42' W 009°09'0 0.0
2018-Apr-06 20:59N 38°42' W 009°09'0 0.0
2018-Apr-06 19:56N 38°42' W 009°09'0 0.0
2018-Apr-06 19:26N 38°42' W 009°09'0 0.0
2018-Apr-06 18:50N 38°42' W 009°09'0 0.0
2018-Apr-06 18:26N 38°42' W 009°09'0 0.0
2018-Apr-06 17:56N 38°42' W 009°09'0 0.0
2018-Apr-06 17:20N 38°42' W 009°09'0 0.0
2018-Apr-06 16:56N 38°42' W 009°09'0 0.0
2018-Apr-06 16:29N 38°42' W 009°09'0 0.0
2018-Apr-06 15:56N 38°42' W 009°09'0 0.0
2018-Apr-06 15:29N 38°42' W 009°09'0 0.0
2018-Apr-06 14:56N 38°42' W 009°09'0 0.0
2018-Apr-06 14:29N 38°42' W 009°09'0 0.0
2018-Apr-06 14:00N 38°42' W 009°09'0 0.5
2018-Apr-06 13:29N 38°42' W 009°10'3 5.8
2018-Apr-06 12:53N 38°41' W 009°14'2 5.3
2018-Apr-06 12:30N 38°41' W 009°17'3 5.5
2018-Apr-06 12:00N 38°39' W 009°19'2 4.3
2018-Apr-06 11:30N 38°38' W 009°21'3 5.5
2018-Apr-06 11:00N 38°37' W 009°25'3 5.5
2018-Apr-06 10:30N 38°38' W 009°28'1 1.5
2018-Apr-06 10:00N 38°38' W 009°28'1 1.6
2018-Apr-06 09:30N 38°38' W 009°29'1 1.6
2018-Apr-06 09:00N 38°38' W 009°30'1 2.1
2018-Apr-06 08:29N 38°37' W 009°29'1 3.0
2018-Apr-06 08:00N 38°37' W 009°27'1 2.0
2018-Apr-06 07:30N 38°37' W 009°28'3 6.0
2018-Apr-06 07:01N 38°37' W 009°32'4 7.1
2018-Apr-06 06:30N 38°36' W 009°36'4 8.0
2018-Apr-06 06:00N 38°35' W 009°41'4 7.6
2018-Apr-06 05:30N 38°32' W 009°43'4 7.9
2018-Apr-06 05:00N 38°28' W 009°43'4 7.8
2018-Apr-06 04:30N 38°24' W 009°43'4 7.7
2018-Apr-06 04:00N 38°20' W 009°42'4 7.2
2018-Apr-06 03:30N 38°16' W 009°41'4 7.8
2018-Apr-06 03:00N 38°13' W 009°40'4 7.9
2018-Apr-06 02:30N 38°09' W 009°39'5 7.9
2018-Apr-06 01:56N 38°04' W 009°38'3 8.0
2018-Apr-06 01:30N 38°01' W 009°37'5 8.1
2018-Apr-06 00:56N 37°56' W 009°36'3 7.9
2018-Apr-06 00:30N 37°53' W 009°36'4 7.8
2018-Apr-06 00:00N 37°49' W 009°35'4 7.6
2018-Apr-05 23:30N 37°45' W 009°34'4 7.4
2018-Apr-05 23:00N 37°42' W 009°33'4 7.6
2018-Apr-05 22:30N 37°38' W 009°32'10 7.5
2018-Apr-05 21:10N 37°28' W 009°29'4 7.7
2018-Apr-05 20:40N 37°25' W 009°28'1 7.5
2018-Apr-05 20:30N 37°23' W 009°28'13 7.7
2018-Apr-05 18:49N 37°11' W 009°23'8 7.7
2018-Apr-05 17:47N 37°03' W 009°21'2 7.9
2018-Apr-05 17:30N 37°01' W 009°20'8 7.7
2018-Apr-05 16:24N 36°53' W 009°17'4 7.8
2018-Apr-05 15:56N 36°50' W 009°15'3 7.5
2018-Apr-05 15:30N 36°47' W 009°12'4 7.3
2018-Apr-05 14:59N 36°45' W 009°08'4 7.4
2018-Apr-05 14:30N 36°44' W 009°04'4 7.5
2018-Apr-05 14:00N 36°44' W 008°59'4 7.6
2018-Apr-05 13:27N 36°45' W 008°54'3 7.7
2018-Apr-05 13:01N 36°47' W 008°51'4 7.9
2018-Apr-05 12:30N 36°50' W 008°47'4 8.1
2018-Apr-05 12:00N 36°53' W 008°44'4 8.1
2018-Apr-05 11:30N 36°57' W 008°41'4 8.1
2018-Apr-05 11:00N 36°60' W 008°38'2 4.1
2018-Apr-05 10:29N 37°01' W 008°36'0 1.0
2018-Apr-05 10:00N 37°02' W 008°36'2 3.1
2018-Apr-05 09:25N 37°03' W 008°35'0 0.0
2018-Apr-05 08:49N 37°03' W 008°35'0 0.0
2018-Apr-05 08:19N 37°03' W 008°35'0 0.0
2018-Apr-05 07:55N 37°03' W 008°35'0 0.0
2018-Apr-05 07:25N 37°03' W 008°35'0 0.1
2018-Apr-05 06:58N 37°03' W 008°35'0 0.0
2018-Apr-05 06:28N 37°03' W 008°35'0 0.0
2018-Apr-05 05:01N 37°03' W 008°35'0 0.0
2018-Apr-05 04:58N 37°03' W 008°35'0 0.1
2018-Apr-05 04:28N 37°03' W 008°35'0 0.0
2018-Apr-05 02:55N 37°03' W 008°35'0 0.0
2018-Apr-05 02:25N 37°03' W 008°35'0 0.0
2018-Apr-05 01:55N 37°03' W 008°35'0 0.0
2018-Apr-05 01:28N 37°03' W 008°35'0 0.0
2018-Apr-05 00:55N 37°03' W 008°35'0 0.0
2018-Apr-05 00:28N 37°03' W 008°35'0 0.0
2018-Apr-04 23:55N 37°03' W 008°35'0 0.0
2018-Apr-04 23:25N 37°03' W 008°35'0 0.0
2018-Apr-04 22:55N 37°03' W 008°35'0 0.1
2018-Apr-04 22:25N 37°03' W 008°35'0 0.0
2018-Apr-04 21:55N 37°03' W 008°35'0 0.0
2018-Apr-04 21:28N 37°03' W 008°35'0 0.0
2018-Apr-04 20:55N 37°03' W 008°35'0 0.0
2018-Apr-04 20:25N 37°03' W 008°35'0 0.0
2018-Apr-04 19:55N 37°03' W 008°35'0 0.0
2018-Apr-04 19:25N 37°03' W 008°35'0 0.0
2018-Apr-04 18:49N 37°03' W 008°35'0 0.0
2018-Apr-04 18:25N 37°03' W 008°35'0 0.0
2018-Apr-04 17:55N 37°03' W 008°35'0 0.0
2018-Apr-04 17:25N 37°03' W 008°35'0 0.0
2018-Apr-04 16:55N 37°03' W 008°35'0 0.0
2018-Apr-04 16:25N 37°03' W 008°35'0 0.1
2018-Apr-04 15:55N 37°03' W 008°35'0 0.0
2018-Apr-04 15:28N 37°03' W 008°35'0 0.0
2018-Apr-04 14:55N 37°03' W 008°35'0 0.0
2018-Apr-04 14:28N 37°03' W 008°35'0 0.0
2018-Apr-04 13:55N 37°03' W 008°35'0 0.0
2018-Apr-04 13:25N 37°03' W 008°35'0 0.0
2018-Apr-04 12:58N 37°03' W 008°35'0 0.0
2018-Apr-04 12:25N 37°03' W 008°35'0 0.0
2018-Apr-04 11:55N 37°03' W 008°35'0 0.0
2018-Apr-04 11:28N 37°03' W 008°35'0 0.0
2018-Apr-04 10:58N 37°03' W 008°35'0 0.0
2018-Apr-04 10:25N 37°03' W 008°35'0 0.0
2018-Apr-04 09:55N 37°03' W 008°35'0 0.0
2018-Apr-04 09:25N 37°03' W 008°35'0 0.0
2018-Apr-04 08:58N 37°03' W 008°35'0 0.0
2018-Apr-04 08:25N 37°03' W 008°35'0 0.0
2018-Apr-04 07:55N 37°03' W 008°35'0 0.0
2018-Apr-04 07:25N 37°03' W 008°35'0 0.0
2018-Apr-04 06:55N 37°03' W 008°35'  

Dump ship's entire track history